createdAt,value
2022-10-10T00:02:24.223Z,2.37
2022-10-10T00:04:53.838Z,2.20
2022-10-10T00:07:23.836Z,3.40
2022-10-10T00:09:57.972Z,3.63
2022-10-10T00:12:34.641Z,2.70
2022-10-10T00:15:06.179Z,2.20
2022-10-10T00:17:36.739Z,1.80
2022-10-10T00:20:07.319Z,2.53
2022-10-10T00:22:37.999Z,2.23
2022-10-10T00:25:13.027Z,2.10
2022-10-10T00:27:47.325Z,2.17
2022-10-10T00:30:18.943Z,1.90
2022-10-10T00:32:51.732Z,1.93
2022-10-10T00:35:45.431Z,1.90
2022-10-10T00:38:24.461Z,2.40
2022-10-10T00:40:58.177Z,2.13
2022-10-10T00:43:32.004Z,2.13
2022-10-10T00:46:01.981Z,1.50
2022-10-10T00:48:37.218Z,1.50
2022-10-10T00:51:16.084Z,1.83
2022-10-10T00:53:51.099Z,2.27
2022-10-10T00:56:28.611Z,1.90
2022-10-10T00:59:03.308Z,2.00
2022-10-10T01:01:31.764Z,2.30
2022-10-10T01:04:03.963Z,2.13
2022-10-10T01:06:33.048Z,2.17
2022-10-10T01:09:03.050Z,1.93
2022-10-10T01:11:54.381Z,2.03
2022-10-10T01:24:32.671Z,2.33
2022-10-10T01:30:44.488Z,2.80
2022-10-10T01:33:36.641Z,2.90
2022-10-10T01:36:14.427Z,2.57
2022-10-10T01:38:56.713Z,3.20
2022-10-10T01:41:37.279Z,1.20
2022-10-10T01:44:06.679Z,1.00
2022-10-10T01:46:38.777Z,0.90
2022-10-10T01:49:07.360Z,0.93
2022-10-10T01:51:57.000Z,0.50
2022-10-10T01:54:38.421Z,0.60
2022-10-10T01:57:18.136Z,0.63
2022-10-10T01:59:59.583Z,0.70
2022-10-10T02:02:47.807Z,0.70
2022-10-10T02:05:24.948Z,1.20
2022-10-10T02:07:58.381Z,1.13
2022-10-10T02:10:31.219Z,1.00
2022-10-10T02:13:02.226Z,1.07
2022-10-10T02:15:34.946Z,1.33
2022-10-10T02:18:07.647Z,0.97
2022-10-10T02:20:37.435Z,1.73
2022-10-10T02:23:06.813Z,2.10
2022-10-10T02:25:40.553Z,2.67
2022-10-10T02:28:14.809Z,1.73
2022-10-10T02:30:46.881Z,1.50
2022-10-10T02:33:24.993Z,1.20
2022-10-10T02:35:54.671Z,1.60
2022-10-10T02:38:22.952Z,1.93
2022-10-10T02:40:52.768Z,1.77
2022-10-10T02:43:21.576Z,2.57
2022-10-10T02:45:49.921Z,2.33
2022-10-10T02:48:19.970Z,2.17
2022-10-10T02:50:48.548Z,2.53
2022-10-10T02:53:16.729Z,1.97
2022-10-10T02:55:45.144Z,2.10
2022-10-10T02:58:14.236Z,2.20
2022-10-10T03:00:42.391Z,2.47
2022-10-10T03:03:10.493Z,2.23
2022-10-10T03:05:40.236Z,2.20
2022-10-10T03:08:11.655Z,2.07
2022-10-10T03:10:40.956Z,1.60
2022-10-10T03:13:09.463Z,2.30
2022-10-10T03:15:37.551Z,2.03
2022-10-10T03:18:06.400Z,1.83
2022-10-10T03:20:34.565Z,2.50
2022-10-10T03:23:04.160Z,2.43
2022-10-10T03:25:35.365Z,2.60
2022-10-10T03:28:03.569Z,2.93
2022-10-10T03:30:31.576Z,3.20
2022-10-10T03:32:59.669Z,2.60
2022-10-10T03:35:27.817Z,2.33
2022-10-10T03:37:56.158Z,2.60
2022-10-10T03:40:26.064Z,1.77
2022-10-10T03:42:54.299Z,2.53
2022-10-10T03:45:22.815Z,2.20
2022-10-10T03:47:51.063Z,2.17
2022-10-10T03:50:19.340Z,1.90
2022-10-10T03:52:47.636Z,2.00
2022-10-10T03:55:15.939Z,1.77
2022-10-10T03:57:45.445Z,2.00
2022-10-10T04:00:14.610Z,1.83
2022-10-10T04:02:42.974Z,2.13
2022-10-10T04:05:11.146Z,2.00
2022-10-10T04:07:39.226Z,2.83
2022-10-10T04:10:08.596Z,2.30
2022-10-10T04:12:36.805Z,2.27
2022-10-10T04:15:07.462Z,2.63
2022-10-10T04:17:35.521Z,2.23
2022-10-10T04:20:03.636Z,2.57
2022-10-10T04:22:32.157Z,1.73
2022-10-10T04:25:00.501Z,2.10
2022-10-10T04:27:28.550Z,2.30
2022-10-10T04:29:56.902Z,2.27
2022-10-10T04:32:26.539Z,3.40
2022-10-10T04:34:54.687Z,1.90
2022-10-10T04:37:22.949Z,2.23
2022-10-10T04:39:51.258Z,2.10
2022-10-10T04:42:19.401Z,2.23
2022-10-10T04:44:47.408Z,1.87
2022-10-10T04:47:15.745Z,1.57
2022-10-10T04:49:45.637Z,1.80
2022-10-10T04:52:13.735Z,2.17
2022-10-10T04:54:42.172Z,1.50
2022-10-10T04:57:10.265Z,2.30
2022-10-10T04:59:38.372Z,2.60
2022-10-10T05:02:06.466Z,1.77
2022-10-10T05:04:34.830Z,2.37
2022-10-10T05:07:05.383Z,1.47
2022-10-10T05:09:34.043Z,2.77
2022-10-10T05:12:03.422Z,2.10
2022-10-10T05:14:31.792Z,1.93
2022-10-10T05:16:59.876Z,1.87
2022-10-10T05:19:27.972Z,2.10
2022-10-10T05:21:56.281Z,1.97
2022-10-10T05:24:26.360Z,2.00
2022-10-10T05:26:54.516Z,1.73
2022-10-10T05:29:22.792Z,2.40
2022-10-10T05:31:50.811Z,1.73
2022-10-10T05:34:19.445Z,1.67
2022-10-10T05:36:49.939Z,1.73
2022-10-10T05:39:18.151Z,1.83
2022-10-10T05:41:47.757Z,1.80
2022-10-10T05:44:19.012Z,2.00
2022-10-10T05:46:53.227Z,2.23
2022-10-10T05:49:21.714Z,2.10
2022-10-10T05:51:49.814Z,2.40
2022-10-10T05:54:18.545Z,2.57
2022-10-10T05:56:49.288Z,2.27
2022-10-10T05:59:17.378Z,1.90
2022-10-10T06:01:45.857Z,1.93
2022-10-10T06:04:14.085Z,1.87
2022-10-10T06:06:43.500Z,1.70
2022-10-10T06:09:12.795Z,2.13
2022-10-10T06:11:41.018Z,2.80
2022-10-10T06:14:10.947Z,2.43
2022-10-10T06:16:39.805Z,1.77
2022-10-10T06:19:11.370Z,2.07
2022-10-10T06:21:42.075Z,1.93
2022-10-10T06:24:10.972Z,1.80
2022-10-10T06:26:39.222Z,1.77
2022-10-10T06:29:07.541Z,1.83
2022-10-10T06:31:41.251Z,1.80
2022-10-10T06:34:09.441Z,1.80
2022-10-10T06:36:39.097Z,2.10
2022-10-10T06:39:07.496Z,2.47
2022-10-10T06:41:35.689Z,2.83
2022-10-10T06:44:04.338Z,2.10
2022-10-10T06:46:34.406Z,2.53
2022-10-10T06:49:04.537Z,1.97
2022-10-10T06:51:32.876Z,2.10
2022-10-10T06:54:01.472Z,1.80
2022-10-10T06:56:29.770Z,1.53
2022-10-10T06:58:57.993Z,1.63
2022-10-10T07:01:30.329Z,2.37
2022-10-10T07:03:58.769Z,2.47
2022-10-10T07:06:32.527Z,2.37
2022-10-10T07:09:05.267Z,2.20
2022-10-10T07:11:33.727Z,2.43
2022-10-10T07:14:01.859Z,2.03
2022-10-10T07:16:30.147Z,3.33
2022-10-10T07:18:58.371Z,2.00
2022-10-10T07:21:28.030Z,2.17
2022-10-10T07:24:04.272Z,1.90
2022-10-10T07:29:25.107Z,3.17
2022-10-10T07:31:53.511Z,1.87
2022-10-10T07:34:22.427Z,1.70
2022-10-10T07:36:52.561Z,2.13
2022-10-10T07:39:21.459Z,2.23
2022-10-10T07:41:50.846Z,1.93
2022-10-10T07:44:20.269Z,2.17
2022-10-10T07:46:48.683Z,3.03
2022-10-10T07:49:16.953Z,2.00
2022-10-10T07:51:48.203Z,2.60
2022-10-10T07:54:18.094Z,2.40
2022-10-10T07:56:46.288Z,2.23
2022-10-10T07:59:14.334Z,2.20
2022-10-10T08:01:42.555Z,2.07
2022-10-10T08:04:11.708Z,2.23
2022-10-10T08:06:39.819Z,2.07
2022-10-10T08:09:15.152Z,1.80
2022-10-10T08:11:44.781Z,2.07
2022-10-10T08:14:13.290Z,2.07
2022-10-10T08:16:42.136Z,2.63
2022-10-10T08:19:14.755Z,2.20
2022-10-10T08:21:43.298Z,2.63
2022-10-10T08:24:13.583Z,2.30
2022-10-10T08:26:41.732Z,1.50
2022-10-10T08:29:12.541Z,2.27
2022-10-10T08:31:41.908Z,2.40
2022-10-10T08:34:11.231Z,2.73
2022-10-10T08:36:40.135Z,1.90
2022-10-10T08:39:09.203Z,1.87
2022-10-10T08:41:44.552Z,1.80
2022-10-10T08:44:19.998Z,3.00
2022-10-10T08:46:51.734Z,2.33
2022-10-10T08:49:25.842Z,1.77
2022-10-10T08:52:02.330Z,2.30
2022-10-10T08:54:34.717Z,2.73
2022-10-10T08:57:07.076Z,2.00
2022-10-10T08:59:44.557Z,2.30
2022-10-10T09:02:43.881Z,2.03
2022-10-10T09:05:22.170Z,2.40
2022-10-10T09:08:17.362Z,2.07
2022-10-10T09:10:54.810Z,2.00
2022-10-10T09:13:39.622Z,2.53
2022-10-10T09:16:25.210Z,2.47
2022-10-10T09:19:02.116Z,2.00
2022-10-10T09:21:35.295Z,2.10
2022-10-10T09:24:18.182Z,2.40
2022-10-10T09:26:51.932Z,2.00
2022-10-10T09:29:32.282Z,1.83
2022-10-10T09:32:07.836Z,2.30
2022-10-10T09:34:43.203Z,2.20
2022-10-10T09:37:42.382Z,2.13
2022-10-10T09:40:23.023Z,2.70
2022-10-10T09:46:31.720Z,2.27
2022-10-10T09:52:28.631Z,2.60
2022-10-10T09:58:15.642Z,2.47
2022-10-10T10:00:49.401Z,2.13
2022-10-10T10:03:21.643Z,2.10
2022-10-10T10:06:05.198Z,2.40
2022-10-10T10:08:39.076Z,2.70
2022-10-10T10:11:32.013Z,2.20
2022-10-10T10:14:05.867Z,2.30
2022-10-10T10:16:41.143Z,2.87
2022-10-10T10:19:32.150Z,2.47
2022-10-10T10:22:18.978Z,2.10
2022-10-10T10:24:52.706Z,2.40
2022-10-10T10:30:28.397Z,1.90
2022-10-10T10:33:04.824Z,1.87
2022-10-10T10:35:40.648Z,2.43
2022-10-10T10:38:30.123Z,1.90
2022-10-10T10:41:07.510Z,2.00
2022-10-10T10:43:56.937Z,2.33
2022-10-10T10:47:05.460Z,2.90
2022-10-10T10:49:38.481Z,1.87
2022-10-10T10:52:32.421Z,2.23
2022-10-10T10:55:27.895Z,1.70
2022-10-10T10:59:09.784Z,2.93
2022-10-10T11:01:51.859Z,1.97
2022-10-10T11:05:22.206Z,2.00
2022-10-10T11:07:40.631Z,2.50
2022-10-10T11:10:19.374Z,2.37
2022-10-10T11:13:02.908Z,2.47
2022-10-10T11:27:32.027Z,1.60
2022-10-10T11:30:15.313Z,1.60
2022-10-10T11:33:06.207Z,2.03
2022-10-10T11:36:25.528Z,2.33
2022-10-10T11:39:15.528Z,2.00
2022-10-10T11:41:49.442Z,1.83
2022-10-10T11:47:28.624Z,1.63
2022-10-10T11:56:14.457Z,1.70
2022-10-10T11:58:46.230Z,1.80
2022-10-10T12:01:22.680Z,1.63
2022-10-10T12:03:53.157Z,2.13
2022-10-10T12:06:28.136Z,2.17
2022-10-10T12:09:03.981Z,1.70
2022-10-10T12:11:37.611Z,1.57
2022-10-10T12:17:01.902Z,1.70
2022-10-10T12:22:31.669Z,2.07
2022-10-10T12:25:24.923Z,1.93
2022-10-10T12:28:27.864Z,1.50
2022-10-10T12:31:30.375Z,1.60
2022-10-10T12:34:11.063Z,1.70
2022-10-10T12:37:21.835Z,1.80
2022-10-10T12:40:22.441Z,2.00
2022-10-10T12:43:45.346Z,2.10
2022-10-10T12:46:24.248Z,1.80
2022-10-10T12:49:33.115Z,2.10
2022-10-10T12:52:10.465Z,1.77
2022-10-10T12:54:48.529Z,1.33
2022-10-10T12:57:27.950Z,1.93
2022-10-10T13:00:01.831Z,1.60
2022-10-10T13:02:30.597Z,1.50
2022-10-10T13:05:28.306Z,2.10
2022-10-10T13:08:04.169Z,1.80
2022-10-10T13:10:36.726Z,2.20
2022-10-10T13:13:19.036Z,1.87
2022-10-10T13:16:05.329Z,1.87
2022-10-10T13:18:39.001Z,1.93
2022-10-10T13:21:28.711Z,1.70
2022-10-10T13:24:17.772Z,1.57
2022-10-10T13:26:48.921Z,1.90
2022-10-10T13:29:31.597Z,1.73
2022-10-10T13:32:06.780Z,1.90
2022-10-10T13:37:41.494Z,1.70
2022-10-10T13:40:16.853Z,1.83
2022-10-10T13:42:50.566Z,1.57
2022-10-10T13:45:40.319Z,2.47
2022-10-10T13:48:21.705Z,1.97
2022-10-10T13:51:06.499Z,1.73
2022-10-10T13:53:49.821Z,2.10
2022-10-10T13:56:24.726Z,2.00
2022-10-10T13:59:14.545Z,2.20
2022-10-10T14:01:46.935Z,2.30
2022-10-10T14:04:21.903Z,1.70
2022-10-10T14:06:56.724Z,1.90
2022-10-10T14:09:30.846Z,1.77
2022-10-10T14:12:03.353Z,1.40
2022-10-10T14:14:37.232Z,1.90
2022-10-10T14:17:07.349Z,1.80
2022-10-10T14:19:35.614Z,2.20
2022-10-10T14:22:07.072Z,1.80
2022-10-10T14:24:35.908Z,1.60
2022-10-10T14:27:13.573Z,2.00
2022-10-10T14:29:43.260Z,2.03
2022-10-10T14:32:14.327Z,1.77
2022-10-10T14:34:43.499Z,1.90
2022-10-10T14:37:20.001Z,2.30
2022-10-10T14:39:48.891Z,1.97
2022-10-10T14:42:20.242Z,2.27
2022-10-10T14:44:48.501Z,2.10
2022-10-10T14:47:20.363Z,1.57
2022-10-10T14:49:48.739Z,2.00
2022-10-10T14:52:18.778Z,1.58
2022-10-10T14:54:46.958Z,1.75
2022-10-10T14:57:17.406Z,1.83
2022-10-10T14:59:46.037Z,1.55
2022-10-10T15:02:29.776Z,2.08
2022-10-10T15:04:58.246Z,1.83
2022-10-10T15:07:26.415Z,2.58
2022-10-10T15:12:49.796Z,2.10
2022-10-10T15:15:18.202Z,1.87
2022-10-10T15:17:56.067Z,2.10
2022-10-10T15:20:31.315Z,2.10
2022-10-10T15:23:01.766Z,2.20
2022-10-10T15:25:33.753Z,2.07
2022-10-10T15:28:04.863Z,1.87
2022-10-10T15:30:42.928Z,2.20
2022-10-10T15:33:28.361Z,2.10
2022-10-10T15:36:08.935Z,2.20
2022-10-10T15:38:39.271Z,2.10
2022-10-10T15:41:10.296Z,2.10
2022-10-10T15:43:51.984Z,2.33
2022-10-10T15:46:20.334Z,2.10
2022-10-10T15:48:52.017Z,1.67
2022-10-10T15:51:20.704Z,1.97
2022-10-10T15:53:52.158Z,1.90
2022-10-10T15:56:20.607Z,2.00
2022-10-10T15:58:50.828Z,1.97
2022-10-10T16:01:23.980Z,2.47
2022-10-10T16:03:55.086Z,2.33
2022-10-10T16:06:25.441Z,1.93
2022-10-10T16:09:10.069Z,1.80
2022-10-10T16:11:49.175Z,1.90
2022-10-10T16:14:22.777Z,2.27
2022-10-10T16:16:51.108Z,1.97
2022-10-10T16:19:21.338Z,2.13
2022-10-10T16:21:51.922Z,2.03
2022-10-10T16:24:20.095Z,1.70
2022-10-10T16:26:48.355Z,2.27
2022-10-10T16:29:26.402Z,2.03
2022-10-10T16:32:31.903Z,2.20
2022-10-10T16:35:39.438Z,2.90
2022-10-10T16:38:11.056Z,1.97
2022-10-10T16:40:53.982Z,1.93
2022-10-10T16:43:25.343Z,2.40
2022-10-10T16:45:54.349Z,2.50
2022-10-10T16:48:23.974Z,2.53
2022-10-10T16:50:54.912Z,2.40
2022-10-10T16:53:25.085Z,2.40
2022-10-10T16:55:56.227Z,2.80
2022-10-10T16:58:30.467Z,2.00
2022-10-10T17:01:03.615Z,3.00
2022-10-10T17:03:34.022Z,2.23
2022-10-10T17:06:08.382Z,2.67
2022-10-10T17:08:58.744Z,2.30
2022-10-10T17:11:40.119Z,3.93
2022-10-10T17:14:17.468Z,2.97
2022-10-10T17:19:37.853Z,3.67
2022-10-10T17:22:06.481Z,4.07
2022-10-10T17:24:37.766Z,3.20
2022-10-10T17:27:06.453Z,3.07
2022-10-10T17:29:34.655Z,3.30
2022-10-10T17:32:06.876Z,3.73
2022-10-10T17:34:36.021Z,3.20
2022-10-10T17:37:05.094Z,3.33
2022-10-10T17:39:33.287Z,2.37
2022-10-10T17:42:04.778Z,2.93
2022-10-10T17:44:39.059Z,4.10
2022-10-10T17:47:08.844Z,3.40
2022-10-10T17:49:37.315Z,3.43
2022-10-10T17:52:05.830Z,7.27
2022-10-10T17:54:34.388Z,3.10
2022-10-10T17:57:04.242Z,2.20
2022-10-10T17:59:32.785Z,5.90
2022-10-10T18:02:01.802Z,4.13
2022-10-10T18:04:30.185Z,3.50
2022-10-10T18:06:58.664Z,3.43
2022-10-10T18:09:27.481Z,2.97
2022-10-10T18:11:57.264Z,2.07
2022-10-10T18:14:43.075Z,2.37
2022-10-10T18:17:12.363Z,2.87
2022-10-10T18:19:40.608Z,2.60
2022-10-10T18:22:08.902Z,2.37
2022-10-10T18:24:37.345Z,2.67
2022-10-10T18:27:06.656Z,1.87
2022-10-10T18:29:34.858Z,2.33
2022-10-10T18:32:04.428Z,1.90
2022-10-10T18:34:32.537Z,3.07
2022-10-10T18:37:01.008Z,5.00
2022-10-10T18:39:33.066Z,3.00
2022-10-10T18:42:01.580Z,2.40
2022-10-10T18:44:30.970Z,4.97
2022-10-10T18:46:59.348Z,5.30
2022-10-10T18:49:54.263Z,7.17
2022-10-10T18:52:25.804Z,7.80
2022-10-10T18:54:56.131Z,8.83
2022-10-10T18:57:24.325Z,3.30
2022-10-10T18:59:53.084Z,2.50
2022-10-10T19:02:21.468Z,2.50
2022-10-10T19:04:52.156Z,4.00
2022-10-10T19:07:21.983Z,4.10
2022-10-10T19:09:50.162Z,4.30
2022-10-10T19:12:18.735Z,10.20
2022-10-10T19:14:47.396Z,9.63
2022-10-10T19:17:15.690Z,9.20
2022-10-10T19:19:43.993Z,5.87
2022-10-10T19:22:12.150Z,3.00
2022-10-10T19:24:42.518Z,3.07
2022-10-10T19:27:11.060Z,3.37
2022-10-10T19:29:39.675Z,4.47
2022-10-10T19:32:09.366Z,2.27
2022-10-10T19:34:39.263Z,3.27
2022-10-10T19:37:07.963Z,2.67
2022-10-10T19:39:37.664Z,3.83
2022-10-10T19:42:09.837Z,3.37
2022-10-10T19:44:38.563Z,3.07
2022-10-10T19:47:06.788Z,2.60
2022-10-10T19:49:37.581Z,2.33
2022-10-10T19:52:06.093Z,5.13
2022-10-10T19:54:50.704Z,14.90
2022-10-10T19:57:21.226Z,3.30
2022-10-10T19:59:52.367Z,3.03
2022-10-10T20:02:21.286Z,3.40
2022-10-10T20:04:49.750Z,3.00
2022-10-10T20:07:18.052Z,4.17
2022-10-10T20:09:46.477Z,2.90
2022-10-10T20:12:14.922Z,2.50
2022-10-10T20:14:44.636Z,3.50
2022-10-10T20:17:13.406Z,3.37
2022-10-10T20:19:42.841Z,7.33
2022-10-10T20:22:11.919Z,4.00
2022-10-10T20:24:41.057Z,3.83
2022-10-10T20:27:09.498Z,2.70
2022-10-10T20:29:37.726Z,4.57
2022-10-10T20:32:08.106Z,6.70
2022-10-10T20:34:42.538Z,5.57
2022-10-10T20:37:11.716Z,3.60
2022-10-10T20:39:44.265Z,4.70
2022-10-10T20:42:15.227Z,3.90
2022-10-10T20:44:44.300Z,3.70
2022-10-10T20:47:18.884Z,3.70
2022-10-10T20:49:51.914Z,3.53
2022-10-10T20:52:20.213Z,3.53
2022-10-10T20:54:50.707Z,3.70
2022-10-10T20:57:19.017Z,4.00
2022-10-10T20:59:58.318Z,3.57
2022-10-10T21:02:28.047Z,3.53
2022-10-10T21:04:56.338Z,3.33
2022-10-10T21:07:24.679Z,4.20
2022-10-10T21:09:53.101Z,7.10
2022-10-10T21:12:21.850Z,5.93
2022-10-10T21:14:51.568Z,4.87
2022-10-10T21:17:20.138Z,2.90
2022-10-10T21:19:50.298Z,3.70
2022-10-10T21:22:18.488Z,8.00
2022-10-10T21:24:46.699Z,4.83
2022-10-10T21:27:15.540Z,4.13
2022-10-10T21:29:46.775Z,3.40
2022-10-10T21:32:15.159Z,2.73
2022-10-10T21:34:43.328Z,2.87
2022-10-10T21:37:13.424Z,2.50
2022-10-10T21:39:41.690Z,2.87
2022-10-10T21:42:09.689Z,2.80
2022-10-10T21:44:38.096Z,2.57
2022-10-10T21:47:06.486Z,3.33
2022-10-10T21:49:35.552Z,2.70
2022-10-10T21:52:04.125Z,3.50
2022-10-10T21:54:33.932Z,3.60
2022-10-10T21:57:08.743Z,3.03
2022-10-10T21:59:38.242Z,3.23
2022-10-10T22:02:13.631Z,2.97
2022-10-10T22:04:42.298Z,3.60
2022-10-10T22:07:10.787Z,2.73
2022-10-10T22:09:40.785Z,2.50
2022-10-10T22:12:09.465Z,3.63
2022-10-10T22:14:40.883Z,2.90
2022-10-10T22:17:09.233Z,2.53
2022-10-10T22:19:38.077Z,2.50
2022-10-10T22:22:06.393Z,2.77
2022-10-10T22:24:34.898Z,2.70
2022-10-10T22:27:04.673Z,3.50
2022-10-10T22:29:35.479Z,2.60
2022-10-10T22:32:03.877Z,2.93
2022-10-10T22:34:32.364Z,2.17
2022-10-10T22:37:01.040Z,2.57
2022-10-10T22:39:29.763Z,2.83
2022-10-10T22:42:01.094Z,2.67
2022-10-10T22:44:32.463Z,2.60
2022-10-10T22:47:01.214Z,2.30
2022-10-10T22:49:29.901Z,3.10
2022-10-10T22:51:58.177Z,3.60
2022-10-10T22:54:26.435Z,2.60
2022-10-10T22:56:54.890Z,2.70
2022-10-10T22:59:23.418Z,3.37
2022-10-10T23:01:54.769Z,2.63
2022-10-10T23:04:23.137Z,3.77
2022-10-10T23:06:51.517Z,2.80
2022-10-10T23:09:19.792Z,3.20
2022-10-10T23:11:48.122Z,2.03
2022-10-10T23:14:16.327Z,2.40
2022-10-10T23:16:44.520Z,2.80
2022-10-10T23:19:14.745Z,2.70
2022-10-10T23:21:43.016Z,2.50
2022-10-10T23:24:11.361Z,2.70
2022-10-10T23:26:40.108Z,3.90
2022-10-10T23:29:09.894Z,3.23
2022-10-10T23:31:39.195Z,2.37
2022-10-10T23:34:09.839Z,2.40
2022-10-10T23:36:39.634Z,2.87
2022-10-10T23:39:10.032Z,2.77
2022-10-10T23:41:38.751Z,2.73
2022-10-10T23:44:07.188Z,2.00
2022-10-10T23:46:35.601Z,2.87
2022-10-10T23:49:03.920Z,2.80
2022-10-10T23:51:32.470Z,1.80
2022-10-10T23:54:02.451Z,3.27
2022-10-10T23:56:30.903Z,2.23
2022-10-10T23:58:59.820Z,2.03
